Chicopee, Missouri
Current Conditions -  °F | °C
As of 3:43 AM on Sunday 26 Oct 2014 (Local Time) from KPOF Reporting Station
Moderate Fog Moderate Fog  
Wind Chill: 55°   Ceiling: 300
Heat Index: 55°   Visibility: 0.25mi
Dew Point: 53°   Wind: 0mph
Humidity: 93%   Direction: NA
Pressure: 29.98"   Gusts: NA
Location:  36.9608°N, 90.9923°W
Report Text: KPOF 260843Z AUTO 00000KT 1/4SM FG VV003 13/12 A2998 RMK AO2 T01280117
Loading
Personal Weather Stations






























Interactive Weather Map
Tropical Storm Tracking
New forecast layout! Learn more

10-Day Weather Forecast

Advertisements
Track Severe Weather on mobile